sensor_id;sensor_type;location;lat;lon;timestamp;pressure;altitude;pressure_sealevel;temperature;humidity
61035;BME280;46916;40.564;-7.958;2022-08-16T00:01:21;97000.09;;;20.46;59.18
61035;BME280;46916;40.564;-7.958;2022-08-16T00:03:22;96993.72;;;20.40;59.32
61035;BME280;46916;40.564;-7.958;2022-08-16T00:05:23;96994.72;;;20.33;60.22
61035;BME280;46916;40.564;-7.958;2022-08-16T00:07:24;96989.84;;;20.29;60.38
61035;BME280;46916;40.564;-7.958;2022-08-16T00:09:25;96990.44;;;20.25;60.80
61035;BME280;46916;40.564;-7.958;2022-08-16T00:11:26;96982.47;;;20.25;60.61
61035;BME280;46916;40.564;-7.958;2022-08-16T00:13:26;96983.69;;;20.22;61.68
61035;BME280;46916;40.564;-7.958;2022-08-16T00:15:41;96990.44;;;20.25;61.25
61035;BME280;46916;40.564;-7.958;2022-08-16T00:17:42;96984.91;;;20.26;61.22
61035;BME280;46916;40.564;-7.958;2022-08-16T00:19:43;96982.03;;;20.28;61.12
61035;BME280;46916;40.564;-7.958;2022-08-16T00:21:43;96971.63;;;20.26;61.61
61035;BME280;46916;40.564;-7.958;2022-08-16T00:23:44;96981.22;;;20.27;61.71
61035;BME280;46916;40.564;-7.958;2022-08-16T00:25:45;96978.38;;;20.29;61.47
61035;BME280;46916;40.564;-7.958;2022-08-16T00:27:46;96977.16;;;20.32;61.56
61035;BME280;46916;40.564;-7.958;2022-08-16T00:29:46;96981.25;;;20.34;61.53
61035;BME280;46916;40.564;-7.958;2022-08-16T00:31:49;96984.94;;;20.33;61.41
61035;BME280;46916;40.564;-7.958;2022-08-16T00:33:50;96975.13;;;20.34;61.58
61035;BME280;46916;40.564;-7.958;2022-08-16T00:35:51;96975.94;;;20.34;62.14
61035;BME280;46916;40.564;-7.958;2022-08-16T00:37:52;96979.63;;;20.40;61.39
61035;BME280;46916;40.564;-7.958;2022-08-16T00:39:55;96975.75;;;20.42;61.48
61035;BME280;46916;40.564;-7.958;2022-08-16T00:41:56;96970.22;;;20.44;61.51
61035;BME280;46916;40.564;-7.958;2022-08-16T00:43:58;96971.66;;;20.46;61.59
61035;BME280;46916;40.564;-7.958;2022-08-16T00:48:19;96971.28;;;20.49;61.32
61035;BME280;46916;40.564;-7.958;2022-08-16T00:50:24;96965.13;;;20.49;61.91
61035;BME280;46916;40.564;-7.958;2022-08-16T00:52:27;96960.19;;;20.46;61.46
61035;BME280;46916;40.564;-7.958;2022-08-16T00:54:29;96957.13;;;20.42;61.73
61035;BME280;46916;40.564;-7.958;2022-08-16T00:56:34;96956.06;;;20.37;61.96
61035;BME280;46916;40.564;-7.958;2022-08-16T00:58:38;96948.94;;;20.37;62.08
61035;BME280;46916;40.564;-7.958;2022-08-16T01:00:40;96948.72;;;20.39;62.28
61035;BME280;46916;40.564;-7.958;2022-08-16T01:02:41;96949.31;;;20.41;61.64
61035;BME280;46916;40.564;-7.958;2022-08-16T01:04:41;96948.72;;;20.39;62.04
61035;BME280;46916;40.564;-7.958;2022-08-16T01:06:42;96951.38;;;20.39;62.28
61035;BME280;46916;40.564;-7.958;2022-08-16T01:08:45;96949.53;;;20.39;62.16
61035;BME280;46916;40.564;-7.958;2022-08-16T01:10:47;96946.88;;;20.39;62.30
61035;BME280;46916;40.564;-7.958;2022-08-16T01:12:48;96940.75;;;20.39;62.08
61035;BME280;46916;40.564;-7.958;2022-08-16T01:14:52;96939.94;;;20.38;62.06
61035;BME280;46916;40.564;-7.958;2022-08-16T01:16:56;96940.97;;;20.37;62.53
61035;BME280;46916;40.564;-7.958;2022-08-16T01:19:02;96936.66;;;20.36;62.52
61035;BME280;46916;40.564;-7.958;2022-08-16T01:25:57;96926.44;;;20.33;62.27
61035;BME280;46916;40.564;-7.958;2022-08-16T01:28:01;96934.19;;;20.28;62.79
61035;BME280;46916;40.564;-7.958;2022-08-16T01:32:09;96930.72;;;20.27;62.87
61035;BME280;46916;40.564;-7.958;2022-08-16T01:34:11;96925.19;;;20.22;63.11
61035;BME280;46916;40.564;-7.958;2022-08-16T01:36:13;96927.63;;;20.24;63.45
61035;BME280;46916;40.564;-7.958;2022-08-16T01:38:25;96919.47;;;20.25;62.90
61035;BME280;46916;40.564;-7.958;2022-08-16T01:40:29;96925.19;;;20.22;63.08
61035;BME280;46916;40.564;-7.958;2022-08-16T01:42:31;96924.34;;;20.15;63.57
61035;BME280;46916;40.564;-7.958;2022-08-16T01:44:32;96917.19;;;20.09;63.61
61035;BME280;46916;40.564;-7.958;2022-08-16T01:46:37;96914.31;;;20.04;63.80
61035;BME280;46916;40.564;-7.958;2022-08-16T01:48:42;96918.22;;;20.01;64.02
61035;BME280;46916;40.564;-7.958;2022-08-16T01:50:43;96918.22;;;20.01;63.79
61035;BME280;46916;40.564;-7.958;2022-08-16T01:52:45;96907.19;;;20.04;63.61
61035;BME280;46916;40.564;-7.958;2022-08-16T01:54:58;96913.91;;;20.00;64.09
61035;BME280;46916;40.564;-7.958;2022-08-16T01:57:01;96910.41;;;20.00;63.83
61035;BME280;46916;40.564;-7.958;2022-08-16T01:59:06;96913.50;;;19.97;63.85
61035;BME280;46916;40.564;-7.958;2022-08-16T02:01:07;96908.56;;;19.94;64.25
61035;BME280;46916;40.564;-7.958;2022-08-16T02:03:08;96910.84;;;19.97;63.85
61035;BME280;46916;40.564;-7.958;2022-08-16T02:05:10;96893.66;;;19.99;63.89
61035;BME280;46916;40.564;-7.958;2022-08-16T02:07:11;96891.41;;;20.03;63.67
61035;BME280;46916;40.564;-7.958;2022-08-16T02:09:14;96890.81;;;20.08;63.57
61035;BME280;46916;40.564;-7.958;2022-08-16T02:11:15;96896.94;;;20.08;63.73
61035;BME280;46916;40.564;-7.958;2022-08-16T02:13:17;96893.47;;;20.08;63.57
61035;BME280;46916;40.564;-7.958;2022-08-16T02:15:22;96895.94;;;20.09;63.44
61035;BME280;46916;40.564;-7.958;2022-08-16T02:17:23;96887.97;;;20.09;63.55
61035;BME280;46916;40.564;-7.958;2022-08-16T02:19:26;96892.25;;;20.10;63.48
61035;BME280;46916;40.564;-7.958;2022-08-16T02:21:27;96885.09;;;20.11;63.41
61035;BME280;46916;40.564;-7.958;2022-08-16T02:23:27;96883.06;;;20.13;63.54
61035;BME280;46916;40.564;-7.958;2022-08-16T02:25:28;96884.06;;;20.12;63.52
61035;BME280;46916;40.564;-7.958;2022-08-16T02:27:29;96878.97;;;20.10;63.51
61035;BME280;46916;40.564;-7.958;2022-08-16T02:29:30;96878.97;;;20.10;63.47
61035;BME280;46916;40.564;-7.958;2022-08-16T02:31:31;96875.47;;;20.10;63.51
61035;BME280;46916;40.564;-7.958;2022-08-16T02:33:32;96867.91;;;20.07;63.84
61035;BME280;46916;40.564;-7.958;2022-08-16T02:35:33;96868.94;;;20.06;63.86
61035;BME280;46916;40.564;-7.958;2022-08-16T02:37:34;96868.31;;;20.10;63.75
61035;BME280;46916;40.564;-7.958;2022-08-16T02:39:35;96870.56;;;20.07;63.80
61035;BME280;46916;40.564;-7.958;2022-08-16T02:41:38;96873.63;;;20.03;64.13
61035;BME280;46916;40.564;-7.958;2022-08-16T02:43:39;96870.75;;;19.98;64.26
61035;BME280;46916;40.564;-7.958;2022-08-16T02:45:40;96868.94;;;19.92;64.68
61035;BME280;46916;40.564;-7.958;2022-08-16T02:47:42;96863.78;;;19.91;65.02
61035;BME280;46916;40.564;-7.958;2022-08-16T02:49:43;96862.97;;;19.90;64.78
61035;BME280;46916;40.564;-7.958;2022-08-16T02:51:45;96859.13;;;19.93;64.84
61035;BME280;46916;40.564;-7.958;2022-08-16T02:53:47;96856.25;;;19.94;65.16
61035;BME280;46916;40.564;-7.958;2022-08-16T02:55:48;96856.63;;;19.91;65.16
61035;BME280;46916;40.564;-7.958;2022-08-16T02:57:49;96851.13;;;19.93;65.34
61035;BME280;46916;40.564;-7.958;2022-08-16T02:59:49;96856.03;;;19.96;65.17
61035;BME280;46916;40.564;-7.958;2022-08-16T03:01:50;96848.91;;;19.96;65.46
61035;BME280;46916;40.564;-7.958;2022-08-16T03:04:01;96849.91;;;19.95;65.36
61035;BME280;46916;40.564;-7.958;2022-08-16T03:06:03;96846.25;;;19.96;65.65
61035;BME280;46916;40.564;-7.958;2022-08-16T03:08:04;96848.66;;;19.91;65.70
61035;BME280;46916;40.564;-7.958;2022-08-16T03:10:12;96840.88;;;19.83;66.09
61035;BME280;46916;40.564;-7.958;2022-08-16T03:12:18;96848.25;;;19.81;66.69
61035;BME280;46916;40.564;-7.958;2022-08-16T03:14:20;96847.88;;;19.84;66.41
61035;BME280;46916;40.564;-7.958;2022-08-16T03:16:23;96849.88;;;19.82;66.87
61035;BME280;46916;40.564;-7.958;2022-08-16T03:18:24;96844.34;;;19.84;66.69
61035;BME280;46916;40.564;-7.958;2022-08-16T03:20:25;96846.41;;;19.82;67.63
61035;BME280;46916;40.564;-7.958;2022-08-16T03:22:26;96846.81;;;19.78;67.15
61035;BME280;46916;40.564;-7.958;2022-08-16T03:24:28;96848.06;;;19.76;67.51
61035;BME280;46916;40.564;-7.958;2022-08-16T03:26:30;96841.72;;;19.77;67.79
61035;BME280;46916;40.564;-7.958;2022-08-16T03:28:31;96844.56;;;19.82;68.03
61035;BME280;46916;40.564;-7.958;2022-08-16T03:30:34;96843.78;;;19.88;69.29
61035;BME280;46916;40.564;-7.958;2022-08-16T03:32:38;96840.50;;;19.93;69.08
61035;BME280;46916;40.564;-7.958;2022-08-16T03:34:38;96846.44;;;19.95;69.90
61035;BME280;46916;40.564;-7.958;2022-08-16T03:36:40;96843.38;;;19.98;68.83
61035;BME280;46916;40.564;-7.958;2022-08-16T03:38:40;96847.88;;;19.97;69.96
61035;BME280;46916;40.564;-7.958;2022-08-16T03:40:44;96850.31;;;19.99;69.31
61035;BME280;46916;40.564;-7.958;2022-08-16T03:42:46;96844.19;;;19.98;69.40
61035;BME280;46916;40.564;-7.958;2022-08-16T03:44:47;96846.25;;;19.96;69.78
61035;BME280;46916;40.564;-7.958;2022-08-16T03:46:50;96842.94;;;19.94;70.00
61035;BME280;46916;40.564;-7.958;2022-08-16T03:48:58;96843.56;;;19.90;70.29
61035;BME280;46916;40.564;-7.958;2022-08-16T03:51:01;96846.22;;;19.90;70.61
61035;BME280;46916;40.564;-7.958;2022-08-16T03:53:06;96847.25;;;19.89;70.69
61035;BME280;46916;40.564;-7.958;2022-08-16T03:55:09;96847.88;;;19.84;71.16
61035;BME280;46916;40.564;-7.958;2022-08-16T03:57:10;96842.53;;;19.84;71.38
61035;BME280;46916;40.564;-7.958;2022-08-16T03:59:10;96849.28;;;19.87;71.06
61035;BME280;46916;40.564;-7.958;2022-08-16T04:01:21;96840.50;;;19.86;71.18
61035;BME280;46916;40.564;-7.958;2022-08-16T04:03:23;96842.34;;;19.86;71.23
61035;BME280;46916;40.564;-7.958;2022-08-16T04:05:24;96849.09;;;19.88;71.18
61035;BME280;46916;40.564;-7.958;2022-08-16T04:07:25;96848.06;;;19.89;70.99
61035;BME280;46916;40.564;-7.958;2022-08-16T04:09:26;96856.03;;;19.89;70.83
61035;BME280;46916;40.564;-7.958;2022-08-16T04:11:27;96854.59;;;19.87;71.38
61035;BME280;46916;40.564;-7.958;2022-08-16T04:13:29;96849.28;;;19.87;71.68
61035;BME280;46916;40.564;-7.958;2022-08-16T04:15:31;96856.03;;;19.89;71.26
61035;BME280;46916;40.564;-7.958;2022-08-16T04:17:45;96849.91;;;19.89;70.80
61035;BME280;46916;40.564;-7.958;2022-08-16T04:19:47;96852.34;;;19.84;71.38
61035;BME280;46916;40.564;-7.958;2022-08-16T04:21:50;96845.59;;;19.81;71.49
61035;BME280;46916;40.564;-7.958;2022-08-16T04:23:56;96848.25;;;19.81;71.25
61035;BME280;46916;40.564;-7.958;2022-08-16T04:25:57;96851.09;;;19.79;71.10
61035;BME280;46916;40.564;-7.958;2022-08-16T04:27:58;96857.66;;;19.77;71.58
61035;BME280;46916;40.564;-7.958;2022-08-16T04:30:00;96851.53;;;19.76;71.66
61035;BME280;46916;40.564;-7.958;2022-08-16T04:32:01;96857.03;;;19.75;72.08
61035;BME280;46916;40.564;-7.958;2022-08-16T04:34:06;96856.22;;;19.74;72.45
61035;BME280;46916;40.564;-7.958;2022-08-16T04:36:07;96857.44;;;19.78;71.84
61035;BME280;46916;40.564;-7.958;2022-08-16T04:38:09;96856.03;;;19.76;71.85
61035;BME280;46916;40.564;-7.958;2022-08-16T04:40:17;96856.81;;;19.70;71.78
61035;BME280;46916;40.564;-7.958;2022-08-16T04:42:18;96859.69;;;19.68;72.25
61035;BME280;46916;40.564;-7.958;2022-08-16T04:44:21;96850.69;;;19.69;71.74
61035;BME280;46916;40.564;-7.958;2022-08-16T04:46:22;96849.88;;;19.69;71.89
61035;BME280;46916;40.564;-7.958;2022-08-16T04:48:23;96854.16;;;19.70;71.49
61035;BME280;46916;40.564;-7.958;2022-08-16T04:50:29;96848.63;;;19.71;71.07
61035;BME280;46916;40.564;-7.958;2022-08-16T04:52:44;96839.03;;;19.70;69.32
61035;BME280;46916;40.564;-7.958;2022-08-16T04:54:44;96848.84;;;19.70;68.55
61035;BME280;46916;40.564;-7.958;2022-08-16T04:56:46;96846.81;;;19.72;68.38
61035;BME280;46916;40.564;-7.958;2022-08-16T04:58:46;96855.38;;;19.74;68.54
61035;BME280;46916;40.564;-7.958;2022-08-16T05:00:49;96857.84;;;19.75;68.01
61035;BME280;46916;40.564;-7.958;2022-08-16T05:02:54;96856.03;;;19.76;67.69
61035;BME280;46916;40.564;-7.958;2022-08-16T05:04:54;96859.06;;;19.73;67.62
61035;BME280;46916;40.564;-7.958;2022-08-16T05:06:56;96855.59;;;19.72;67.58
61035;BME280;46916;40.564;-7.958;2022-08-16T05:09:07;96859.69;;;19.75;67.20
61035;BME280;46916;40.564;-7.958;2022-08-16T05:11:09;96861.34;;;19.76;67.19
61035;BME280;46916;40.564;-7.958;2022-08-16T05:13:11;96860.91;;;19.79;67.09
61035;BME280;46916;40.564;-7.958;2022-08-16T05:15:12;96864.59;;;19.78;66.93
61035;BME280;46916;40.564;-7.958;2022-08-16T05:17:14;96869.91;;;19.78;67.66
61035;BME280;46916;40.564;-7.958;2022-08-16T05:19:15;96880.31;;;19.79;67.36
61035;BME280;46916;40.564;-7.958;2022-08-16T05:21:34;96890.94;;;19.79;67.55
61035;BME280;46916;40.564;-7.958;2022-08-16T05:23:38;96885.84;;;19.78;67.87
61035;BME280;46916;40.564;-7.958;2022-08-16T05:25:39;96886.88;;;19.77;67.17
61035;BME280;46916;40.564;-7.958;2022-08-16T05:27:40;96891.56;;;19.75;66.60
61035;BME280;46916;40.564;-7.958;2022-08-16T05:29:41;96888.91;;;19.75;66.09
61035;BME280;46916;40.564;-7.958;2022-08-16T05:31:49;96895.25;;;19.74;65.65
61035;BME280;46916;40.564;-7.958;2022-08-16T05:33:50;96896.28;;;19.73;65.73
61035;BME280;46916;40.564;-7.958;2022-08-16T05:35:51;96899.94;;;19.72;65.81
61035;BME280;46916;40.564;-7.958;2022-08-16T05:38:03;96897.84;;;19.61;65.75
61035;BME280;46916;40.564;-7.958;2022-08-16T05:40:07;96905.34;;;19.50;65.11
61035;BME280;46916;40.564;-7.958;2022-08-16T05:42:10;96903.06;;;19.41;65.07
61035;BME280;46916;40.564;-7.958;2022-08-16T05:44:14;96900.41;;;19.41;64.74
61035;BME280;46916;40.564;-7.958;2022-08-16T05:46:15;96907.75;;;19.39;64.73
61035;BME280;46916;40.564;-7.958;2022-08-16T05:48:20;96905.31;;;19.37;64.43
61035;BME280;46916;40.564;-7.958;2022-08-16T05:50:31;96906.72;;;19.33;64.42
61035;BME280;46916;40.564;-7.958;2022-08-16T05:52:31;96914.47;;;19.35;64.26
61035;BME280;46916;40.564;-7.958;2022-08-16T05:54:33;96904.09;;;19.40;64.31
61035;BME280;46916;40.564;-7.958;2022-08-16T05:56:34;96909.63;;;19.45;63.97
61035;BME280;46916;40.564;-7.958;2022-08-16T05:58:35;96910.06;;;19.48;63.85
61035;BME280;46916;40.564;-7.958;2022-08-16T06:00:36;96908.41;;;19.47;63.89
61035;BME280;46916;40.564;-7.958;2022-08-16T06:02:37;96911.69;;;19.49;64.39
61035;BME280;46916;40.564;-7.958;2022-08-16T06:04:39;96915.16;;;19.50;64.23
61035;BME280;46916;40.564;-7.958;2022-08-16T06:06:44;96912.94;;;19.53;64.18
61035;BME280;46916;40.564;-7.958;2022-08-16T06:08:47;96922.09;;;19.51;64.11
61035;BME280;46916;40.564;-7.958;2022-08-16T06:10:49;96931.09;;;19.50;63.93
61035;BME280;46916;40.564;-7.958;2022-08-16T06:12:50;96929.69;;;19.54;64.11
61035;BME280;46916;40.564;-7.958;2022-08-16T06:14:51;96931.72;;;19.59;63.91
61035;BME280;46916;40.564;-7.958;2022-08-16T06:16:52;96935.66;;;19.63;64.15
61035;BME280;46916;40.564;-7.958;2022-08-16T06:18:54;96927.94;;;19.68;64.05
61035;BME280;46916;40.564;-7.958;2022-08-16T06:20:55;96931.84;;;19.72;63.96
61035;BME280;46916;40.564;-7.958;2022-08-16T06:22:59;96936.72;;;19.75;64.21
61035;BME280;46916;40.564;-7.958;2022-08-16T06:25:05;96944.69;;;19.68;64.91
61035;BME280;46916;40.564;-7.958;2022-08-16T06:27:06;96943.44;;;19.64;65.05
61035;BME280;46916;40.564;-7.958;2022-08-16T06:29:08;96946.94;;;19.65;65.48
61035;BME280;46916;40.564;-7.958;2022-08-16T06:31:16;96956.13;;;19.69;65.28
61035;BME280;46916;40.564;-7.958;2022-08-16T06:33:20;96955.75;;;19.78;65.10
61035;BME280;46916;40.564;-7.958;2022-08-16T06:35:21;96957.41;;;19.86;64.92
61035;BME280;46916;40.564;-7.958;2022-08-16T06:37:23;96966.19;;;19.87;64.29
61035;BME280;46916;40.564;-7.958;2022-08-16T06:39:24;96966.63;;;19.90;64.10
61035;BME280;46916;40.564;-7.958;2022-08-16T06:41:33;96970.53;;;19.94;63.57
61035;BME280;46916;40.564;-7.958;2022-08-16T06:43:42;96976.25;;;19.98;62.99
61035;BME280;46916;40.564;-7.958;2022-08-16T06:45:48;96979.72;;;19.98;62.46
61035;BME280;46916;40.564;-7.958;2022-08-16T06:47:55;96974.63;;;20.03;62.37
61035;BME280;46916;40.564;-7.958;2022-08-16T06:49:58;96983.25;;;20.06;62.49
61035;BME280;46916;40.564;-7.958;2022-08-16T06:52:08;96991.63;;;20.09;62.27
61035;BME280;46916;40.564;-7.958;2022-08-16T06:54:11;96982.03;;;20.15;61.94
61035;BME280;46916;40.564;-7.958;2022-08-16T06:56:12;96988.78;;;20.17;61.62
61035;BME280;46916;40.564;-7.958;2022-08-16T06:58:27;96990.63;;;20.17;61.72
61035;BME280;46916;40.564;-7.958;2022-08-16T07:00:35;96990.22;;;20.20;60.51
61035;BME280;46916;40.564;-7.958;2022-08-16T07:02:42;96991.69;;;20.29;60.65
61035;BME280;46916;40.564;-7.958;2022-08-16T07:04:43;96991.06;;;20.27;60.72
61035;BME280;46916;40.564;-7.958;2022-08-16T07:06:50;96993.50;;;20.22;60.64
61035;BME280;46916;40.564;-7.958;2022-08-16T07:08:51;96994.09;;;20.24;60.66
61035;BME280;46916;40.564;-7.958;2022-08-16T07:10:52;96994.31;;;20.22;60.47
61035;BME280;46916;40.564;-7.958;2022-08-16T07:12:54;96993.91;;;20.19;60.04
61035;BME280;46916;40.564;-7.958;2022-08-16T07:14:55;96996.59;;;20.25;60.14
61035;BME280;46916;40.564;-7.958;2022-08-16T07:16:57;96998.66;;;20.43;59.92
61035;BME280;46916;40.564;-7.958;2022-08-16T07:18:59;96992.75;;;20.61;58.40
61035;BME280;46916;40.564;-7.958;2022-08-16T07:21:00;96992.16;;;20.79;58.04
61035;BME280;46916;40.564;-7.958;2022-08-16T07:23:01;96990.13;;;20.88;57.53
61035;BME280;46916;40.564;-7.958;2022-08-16T07:25:11;96998.50;;;20.98;57.25
61035;BME280;46916;40.564;-7.958;2022-08-16T07:27:12;96997.69;;;21.11;57.06
61035;BME280;46916;40.564;-7.958;2022-08-16T07:29:14;97006.88;;;21.21;56.66
61035;BME280;46916;40.564;-7.958;2022-08-16T07:31:17;97009.13;;;21.24;56.80
61035;BME280;46916;40.564;-7.958;2022-08-16T07:33:18;97001.31;;;21.43;57.37
61035;BME280;46916;40.564;-7.958;2022-08-16T07:35:19;97009.06;;;21.64;57.14
61035;BME280;46916;40.564;-7.958;2022-08-16T07:37:20;97018.44;;;21.80;56.53
61035;BME280;46916;40.564;-7.958;2022-08-16T07:39:36;97010.00;;;21.90;56.41
61035;BME280;46916;40.564;-7.958;2022-08-16T07:41:37;97013.50;;;21.84;56.10
61035;BME280;46916;40.564;-7.958;2022-08-16T07:43:38;97003.13;;;21.62;55.29
61035;BME280;46916;40.564;-7.958;2022-08-16T07:45:39;97007.88;;;21.47;55.29
61035;BME280;46916;40.564;-7.958;2022-08-16T07:47:41;97017.06;;;21.51;55.85
61035;BME280;46916;40.564;-7.958;2022-08-16T07:49:43;97014.00;;;21.61;55.88
61035;BME280;46916;40.564;-7.958;2022-08-16T07:51:44;97013.53;;;21.70;55.47
61035;BME280;46916;40.564;-7.958;2022-08-16T07:53:45;97014.34;;;21.77;55.25
61035;BME280;46916;40.564;-7.958;2022-08-16T07:55:51;97013.13;;;21.80;55.02
61035;BME280;46916;40.564;-7.958;2022-08-16T07:58:01;97019.91;;;21.76;54.61
61035;BME280;46916;40.564;-7.958;2022-08-16T08:00:03;97023.81;;;21.67;54.13
61035;BME280;46916;40.564;-7.958;2022-08-16T08:02:14;97020.34;;;21.60;54.23
61035;BME280;46916;40.564;-7.958;2022-08-16T08:04:16;97022.63;;;21.56;54.12
61035;BME280;46916;40.564;-7.958;2022-08-16T08:06:23;97030.22;;;21.52;54.03
61035;BME280;46916;40.564;-7.958;2022-08-16T08:08:24;97025.50;;;21.35;54.07
61035;BME280;46916;40.564;-7.958;2022-08-16T08:10:25;97036.19;;;21.15;54.83
61035;BME280;46916;40.564;-7.958;2022-08-16T08:12:26;97034.75;;;20.99;54.87
61035;BME280;46916;40.564;-7.958;2022-08-16T08:14:26;97032.69;;;20.81;55.12
61035;BME280;46916;40.564;-7.958;2022-08-16T08:16:28;97035.78;;;20.78;54.94
61035;BME280;46916;40.564;-7.958;2022-08-16T08:18:28;97029.63;;;20.84;54.45
61035;BME280;46916;40.564;-7.958;2022-08-16T08:20:30;97031.25;;;20.85;53.98
61035;BME280;46916;40.564;-7.958;2022-08-16T08:22:32;97029.03;;;20.82;53.80
61035;BME280;46916;40.564;-7.958;2022-08-16T08:24:37;97029.81;;;20.89;53.74
61035;BME280;46916;40.564;-7.958;2022-08-16T08:26:40;97034.13;;;21.03;53.81
61035;BME280;46916;40.564;-7.958;2022-08-16T08:28:42;97034.97;;;21.11;53.36
61035;BME280;46916;40.564;-7.958;2022-08-16T08:30:43;97040.66;;;21.21;53.43
61035;BME280;46916;40.564;-7.958;2022-08-16T08:32:44;97037.41;;;21.32;53.44
61035;BME280;46916;40.564;-7.958;2022-08-16T08:34:46;97043.16;;;21.36;52.30
61035;BME280;46916;40.564;-7.958;2022-08-16T08:36:47;97047.22;;;21.25;52.04
61035;BME280;46916;40.564;-7.958;2022-08-16T08:39:01;97044.56;;;21.12;52.87
61035;BME280;46916;40.564;-7.958;2022-08-16T08:41:03;97042.72;;;21.06;53.29
61035;BME280;46916;40.564;-7.958;2022-08-16T08:43:08;97043.97;;;21.03;53.32
61035;BME280;46916;40.564;-7.958;2022-08-16T08:45:13;97045.00;;;20.95;53.45
61035;BME280;46916;40.564;-7.958;2022-08-16T08:47:15;97051.34;;;20.88;53.45
61035;BME280;46916;40.564;-7.958;2022-08-16T08:49:16;97052.34;;;20.93;53.84
61035;BME280;46916;40.564;-7.958;2022-08-16T08:51:18;97048.25;;;20.91;53.85
61035;BME280;46916;40.564;-7.958;2022-08-16T08:53:27;97053.38;;;20.92;53.70
61035;BME280;46916;40.564;-7.958;2022-08-16T08:55:28;97053.78;;;20.89;53.84
61035;BME280;46916;40.564;-7.958;2022-08-16T08:57:31;97053.38;;;20.92;54.16
61035;BME280;46916;40.564;-7.958;2022-08-16T09:00:01;97053.56;;;20.97;53.33
61035;BME280;46916;40.564;-7.958;2022-08-16T09:02:03;97058.91;;;20.91;53.54
61035;BME280;46916;40.564;-7.958;2022-08-16T09:04:28;97064.00;;;20.86;53.47
61035;BME280;46916;40.564;-7.958;2022-08-16T09:06:29;97064.84;;;20.80;53.60
61035;BME280;46916;40.564;-7.958;2022-08-16T09:08:33;97061.56;;;20.71;53.77
61035;BME280;46916;40.564;-7.958;2022-08-16T09:10:38;97064.00;;;20.59;54.28
61035;BME280;46916;40.564;-7.958;2022-08-16T09:12:39;97068.22;;;20.47;54.69
61035;BME280;46916;40.564;-7.958;2022-08-16T09:14:42;97072.75;;;20.53;55.04
61035;BME280;46916;40.564;-7.958;2022-08-16T09:16:43;97065.00;;;20.65;54.69
61035;BME280;46916;40.564;-7.958;2022-08-16T09:18:44;97062.59;;;20.70;54.57
61035;BME280;46916;40.564;-7.958;2022-08-16T09:20:45;97065.88;;;20.92;54.82
61035;BME280;46916;40.564;-7.958;2022-08-16T09:22:46;97062.38;;;21.05;53.83
61035;BME280;46916;40.564;-7.958;2022-08-16T09:24:49;97066.47;;;21.14;53.56
61035;BME280;46916;40.564;-7.958;2022-08-16T09:26:50;97073.47;;;21.15;52.33
61035;BME280;46916;40.564;-7.958;2022-08-16T09:28:50;97067.72;;;21.05;52.90
61035;BME280;46916;40.564;-7.958;2022-08-16T09:30:57;97069.34;;;21.06;52.65
61035;BME280;46916;40.564;-7.958;2022-08-16T09:32:58;97073.06;;;21.11;52.38
61035;BME280;46916;40.564;-7.958;2022-08-16T09:35:00;97069.38;;;21.19;52.94
61035;BME280;46916;40.564;-7.958;2022-08-16T09:37:00;97067.50;;;21.26;52.72
61035;BME280;46916;40.564;-7.958;2022-08-16T09:39:02;97066.28;;;21.28;52.36
61035;BME280;46916;40.564;-7.958;2022-08-16T09:41:05;97078.19;;;21.33;51.94
61035;BME280;46916;40.564;-7.958;2022-08-16T09:43:08;97083.09;;;21.36;52.19
61035;BME280;46916;40.564;-7.958;2022-08-16T09:45:09;97084.97;;;21.35;51.69
61035;BME280;46916;40.564;-7.958;2022-08-16T09:47:10;97081.66;;;21.33;51.65
61035;BME280;46916;40.564;-7.958;2022-08-16T09:49:12;97089.03;;;21.31;51.34
61035;BME280;46916;40.564;-7.958;2022-08-16T09:51:13;97096.19;;;21.24;51.45
61035;BME280;46916;40.564;-7.958;2022-08-16T09:53:17;97092.72;;;21.23;51.21
61035;BME280;46916;40.564;-7.958;2022-08-16T09:55:18;97097.59;;;21.26;51.47
61035;BME280;46916;40.564;-7.958;2022-08-16T09:57:19;97099.28;;;21.27;51.43
61035;BME280;46916;40.564;-7.958;2022-08-16T09:59:22;97092.50;;;21.32;51.48
61035;BME280;46916;40.564;-7.958;2022-08-16T10:01:23;97099.69;;;21.38;51.55
61035;BME280;46916;40.564;-7.958;2022-08-16T10:03:23;97104.41;;;21.42;51.89
61035;BME280;46916;40.564;-7.958;2022-08-16T10:05:24;97105.03;;;21.44;51.61
61035;BME280;46916;40.564;-7.958;2022-08-16T10:07:27;97102.97;;;21.46;51.72
61035;BME280;46916;40.564;-7.958;2022-08-16T10:09:29;97103.19;;;21.51;51.34
61035;BME280;46916;40.564;-7.958;2022-08-16T10:11:29;97105.81;;;21.58;51.05
61035;BME280;46916;40.564;-7.958;2022-08-16T10:13:48;97109.06;;;21.67;51.05
61035;BME280;46916;40.564;-7.958;2022-08-16T10:15:49;97114.41;;;21.67;50.33
61035;BME280;46916;40.564;-7.958;2022-08-16T10:17:54;97114.84;;;21.50;50.05
61035;BME280;46916;40.564;-7.958;2022-08-16T10:19:55;97112.59;;;21.41;50.75
61035;BME280;46916;40.564;-7.958;2022-08-16T10:21:56;97118.53;;;21.43;50.83
61035;BME280;46916;40.564;-7.958;2022-08-16T10:23:56;97115.66;;;21.38;50.76
61035;BME280;46916;40.564;-7.958;2022-08-16T10:26:00;97118.75;;;21.41;50.96
61035;BME280;46916;40.564;-7.958;2022-08-16T10:28:00;97113.63;;;21.53;50.77
61035;BME280;46916;40.564;-7.958;2022-08-16T10:30:03;97118.94;;;21.60;49.95
61035;BME280;46916;40.564;-7.958;2022-08-16T10:32:05;97110.13;;;21.72;50.01
61035;BME280;46916;40.564;-7.958;2022-08-16T10:34:06;97110.31;;;21.77;49.76
61035;BME280;46916;40.564;-7.958;2022-08-16T10:36:08;97109.06;;;21.80;49.52
61035;BME280;46916;40.564;-7.958;2022-08-16T10:38:10;97110.72;;;21.81;49.01
61035;BME280;46916;40.564;-7.958;2022-08-16T10:40:12;97110.50;;;21.83;48.24
61035;BME280;46916;40.564;-7.958;2022-08-16T10:42:13;97108.63;;;21.90;47.93
61035;BME280;46916;40.564;-7.958;2022-08-16T10:44:14;97109.00;;;22.00;47.28
61035;BME280;46916;40.564;-7.958;2022-08-16T10:46:15;97099.94;;;22.08;47.27
61035;BME280;46916;40.564;-7.958;2022-08-16T10:48:16;97106.94;;;22.09;46.43
61035;BME280;46916;40.564;-7.958;2022-08-16T10:50:17;97100.41;;;21.98;46.16
61035;BME280;46916;40.564;-7.958;2022-08-16T10:52:18;97106.56;;;21.92;46.76